createdAt,value
2018-12-20T00:00:49.909Z,47.8
2018-12-20T00:02:50.249Z,47.8
2018-12-20T00:04:50.039Z,49.0
2018-12-20T00:06:49.728Z,47.2
2018-12-20T00:08:50.044Z,49.7
2018-12-20T00:10:50.509Z,49.9
2018-12-20T00:12:49.897Z,49.9
2018-12-20T00:14:50.307Z,51.0
2018-12-20T00:16:49.828Z,50.2
2018-12-20T00:18:50.177Z,49.7
2018-12-20T00:20:50.426Z,49.7
2018-12-20T00:22:49.736Z,48.7
2018-12-20T00:24:50.003Z,48.8
2018-12-20T00:26:49.516Z,47.6
2018-12-20T00:28:49.716Z,47.6
2018-12-20T00:30:49.945Z,47.5
2018-12-20T00:32:50.212Z,45.8
2018-12-20T00:34:49.902Z,46.1
2018-12-20T00:36:49.716Z,49.4
2018-12-20T00:38:50.256Z,47.1
2018-12-20T00:40:50.469Z,47.1
2018-12-20T00:42:49.744Z,46.1
2018-12-20T00:44:50.210Z,49.3
2018-12-20T00:46:49.550Z,46.4
2018-12-20T00:48:50.560Z,46.7
2018-12-20T00:50:49.798Z,46.7
2018-12-20T00:52:50.243Z,48.6
2018-12-20T00:54:49.620Z,47.8
2018-12-20T00:56:50.155Z,47.5
2018-12-20T00:58:49.529Z,47.8
2018-12-20T01:00:49.869Z,47.8
2018-12-20T01:02:55.804Z,47.7
2018-12-20T01:04:50.387Z,47.5
2018-12-20T01:06:50.144Z,49.3
2018-12-20T01:08:50.389Z,49.3
2018-12-20T01:10:49.804Z,49.1
2018-12-20T01:12:50.335Z,48.4
2018-12-20T01:14:50.511Z,47.5
2018-12-20T01:16:50.105Z,47.5
2018-12-20T01:18:50.589Z,47.8
2018-12-20T01:20:49.809Z,47.8
2018-12-20T01:22:50.212Z,48.5
2018-12-20T01:24:50.389Z,47.3
2018-12-20T01:26:49.808Z,48.0
2018-12-20T01:28:50.109Z,48.0
2018-12-20T01:30:50.470Z,46.8
2018-12-20T01:32:49.739Z,47.8
2018-12-20T01:34:50.559Z,48.0
2018-12-20T01:36:50.198Z,46.5
2018-12-20T01:38:50.514Z,45.0
2018-12-20T01:40:49.742Z,45.0
2018-12-20T01:42:50.288Z,47.6
2018-12-20T01:44:54.015Z,45.6
2018-12-20T01:46:50.499Z,47.8
2018-12-20T01:48:49.855Z,47.8
2018-12-20T01:50:50.315Z,46.6
2018-12-20T01:52:49.668Z,47.2
2018-12-20T01:54:50.129Z,48.2
2018-12-20T01:56:49.605Z,47.4
2018-12-20T01:58:50.170Z,47.4
2018-12-20T02:00:49.955Z,45.0
2018-12-20T02:02:50.206Z,47.3
2018-12-20T02:04:50.108Z,45.5
2018-12-20T02:06:49.625Z,45.6
2018-12-20T02:08:50.350Z,45.6
2018-12-20T02:10:49.791Z,44.7
2018-12-20T02:12:50.174Z,46.1
2018-12-20T02:14:49.552Z,47.0
2018-12-20T02:16:50.014Z,47.0
2018-12-20T02:18:50.521Z,46.0
2018-12-20T02:20:50.092Z,45.9
2018-12-20T02:22:50.549Z,46.4
2018-12-20T02:24:49.881Z,45.9
2018-12-20T02:26:49.667Z,45.9
2018-12-20T02:28:50.231Z,45.5
2018-12-20T02:30:49.862Z,47.0
2018-12-20T02:32:50.564Z,45.7
2018-12-20T02:34:50.238Z,46.6
2018-12-20T02:36:49.920Z,46.6
2018-12-20T02:38:49.793Z,45.9
2018-12-20T02:40:49.817Z,45.1
2018-12-20T02:42:49.780Z,45.2
2018-12-20T02:44:50.050Z,47.8
2018-12-20T02:46:49.810Z,47.8
2018-12-20T02:48:50.344Z,46.4
2018-12-20T02:50:50.162Z,45.8
2018-12-20T02:52:49.837Z,46.0
2018-12-20T02:54:50.424Z,46.0
2018-12-20T02:56:50.133Z,46.6
2018-12-20T02:58:50.626Z,45.4
2018-12-20T03:00:50.140Z,47.9
2018-12-20T03:02:49.810Z,47.9
2018-12-20T03:04:50.084Z,45.2
2018-12-20T03:06:49.699Z,47.8
2018-12-20T03:08:49.746Z,45.9
2018-12-20T03:10:49.827Z,44.8
2018-12-20T03:12:49.881Z,44.8
2018-12-20T03:14:50.715Z,47.0
2018-12-20T03:16:49.868Z,47.6
2018-12-20T03:18:50.329Z,47.7
2018-12-20T03:20:50.100Z,47.7
2018-12-20T03:22:49.872Z,46.4
2018-12-20T03:24:50.438Z,46.4
2018-12-20T03:26:50.149Z,45.0
2018-12-20T03:28:50.419Z,47.5
2018-12-20T03:30:50.445Z,47.5
2018-12-20T03:32:49.899Z,49.0
2018-12-20T03:34:50.680Z,49.0
2018-12-20T03:36:50.416Z,46.8
2018-12-20T03:38:50.381Z,50.1
2018-12-20T03:40:49.845Z,48.3
2018-12-20T03:42:50.447Z,50.4
2018-12-20T03:44:49.885Z,50.4
2018-12-20T03:46:50.342Z,48.5
2018-12-20T03:48:50.652Z,48.6
2018-12-20T03:50:50.328Z,47.5
2018-12-20T03:52:49.905Z,49.9
2018-12-20T03:54:50.520Z,49.9
2018-12-20T03:56:50.428Z,49.4
2018-12-20T03:58:50.321Z,48.5
2018-12-20T04:00:49.922Z,49.9
2018-12-20T04:02:50.764Z,49.9
2018-12-20T04:04:49.605Z,50.2
2018-12-20T04:06:50.070Z,47.8
2018-12-20T04:08:50.596Z,49.0
2018-12-20T04:10:50.366Z,46.3
2018-12-20T04:12:50.475Z,46.3
2018-12-20T04:14:50.446Z,49.0
2018-12-20T04:16:50.371Z,46.9
2018-12-20T04:18:50.057Z,46.6
2018-12-20T04:20:50.516Z,48.0
2018-12-20T04:22:50.146Z,48.0
2018-12-20T04:24:49.939Z,48.8
2018-12-20T04:26:50.851Z,49.2
2018-12-20T04:28:50.183Z,46.4
2018-12-20T04:30:50.305Z,49.0
2018-12-20T04:32:50.037Z,49.0
2018-12-20T04:34:50.102Z,48.9
2018-12-20T04:36:49.762Z,47.2
2018-12-20T04:38:50.739Z,49.1
2018-12-20T04:40:50.421Z,47.1
2018-12-20T04:42:50.089Z,47.1
2018-12-20T04:44:49.873Z,48.2
2018-12-20T04:46:49.684Z,48.3
2018-12-20T04:48:50.293Z,47.3
2018-12-20T04:50:49.750Z,47.6
2018-12-20T04:52:50.755Z,47.6
2018-12-20T04:54:50.378Z,46.0
2018-12-20T04:56:50.033Z,46.9
2018-12-20T04:58:49.662Z,46.7
2018-12-20T05:00:50.443Z,46.7
2018-12-20T05:02:49.935Z,48.5
2018-12-20T05:04:50.226Z,46.8
2018-12-20T05:06:50.400Z,48.1
2018-12-20T05:08:50.491Z,47.2
2018-12-20T05:10:50.205Z,47.2
2018-12-20T05:12:49.776Z,47.6
2018-12-20T05:14:50.082Z,46.8
2018-12-20T05:16:49.796Z,47.5
2018-12-20T05:18:49.910Z,47.7
2018-12-20T05:20:50.173Z,47.7
2018-12-20T05:22:50.488Z,46.5
2018-12-20T05:24:49.853Z,47.1
2018-12-20T05:26:49.978Z,46.0
2018-12-20T05:28:49.780Z,48.9
2018-12-20T05:30:50.227Z,48.9
2018-12-20T05:32:49.874Z,49.2
2018-12-20T05:34:49.992Z,45.8
2018-12-20T05:36:50.177Z,45.1
2018-12-20T05:38:49.795Z,47.5
2018-12-20T05:40:49.954Z,47.5
2018-12-20T05:42:49.692Z,44.3
2018-12-20T05:44:50.198Z,46.0
2018-12-20T05:46:50.038Z,46.9
2018-12-20T05:48:50.035Z,46.9
2018-12-20T05:50:49.936Z,42.4
2018-12-20T05:52:50.340Z,43.6
2018-12-20T05:54:49.849Z,44.4
2018-12-20T05:56:50.084Z,44.4
2018-12-20T05:58:49.798Z,45.5
2018-12-20T06:00:50.242Z,45.7
2018-12-20T06:02:50.091Z,45.7
2018-12-20T06:04:50.320Z,45.3
2018-12-20T06:06:50.156Z,43.7
2018-12-20T06:08:50.511Z,43.7
2018-12-20T06:10:50.006Z,44.2
2018-12-20T06:12:49.954Z,45.2
2018-12-20T06:14:50.208Z,42.3
2018-12-20T06:16:50.458Z,42.3
2018-12-20T06:18:50.277Z,43.0
2018-12-20T06:20:49.662Z,45.1
2018-12-20T06:22:49.984Z,44.9
2018-12-20T06:24:50.009Z,44.9
2018-12-20T06:26:50.111Z,44.7
2018-12-20T06:28:50.043Z,44.0
2018-12-20T06:30:49.957Z,44.4
2018-12-20T06:32:49.970Z,44.4
2018-12-20T06:34:50.230Z,48.4
2018-12-20T06:36:50.094Z,48.4
2018-12-20T06:38:50.036Z,47.7
2018-12-20T06:40:50.002Z,46.9
2018-12-20T06:42:50.022Z,47.4
2018-12-20T06:44:50.008Z,47.4
2018-12-20T06:46:50.250Z,46.2
2018-12-20T06:48:50.185Z,44.5
2018-12-20T06:50:50.147Z,47.2
2018-12-20T06:52:50.140Z,47.2
2018-12-20T06:54:50.147Z,47.2
2018-12-20T06:56:50.325Z,46.0
2018-12-20T06:58:50.340Z,47.7
2018-12-20T07:00:50.374Z,45.9
2018-12-20T07:02:50.292Z,45.9
2018-12-20T07:04:49.639Z,47.8
2018-12-20T07:06:49.786Z,46.7
2018-12-20T07:08:49.782Z,51.3
2018-12-20T07:10:49.768Z,45.8
2018-12-20T07:12:49.782Z,46.7
2018-12-20T07:14:49.740Z,46.7
2018-12-20T07:16:49.877Z,47.8
2018-12-20T07:18:49.797Z,46.3
2018-12-20T07:20:49.765Z,46.3
2018-12-20T07:22:49.701Z,46.7
2018-12-20T07:24:49.673Z,46.7
2018-12-20T07:26:49.964Z,45.0
2018-12-20T07:28:49.948Z,48.2
2018-12-20T07:30:49.904Z,53.5
2018-12-20T07:32:49.949Z,46.6
2018-12-20T07:34:50.176Z,46.6
2018-12-20T07:36:50.336Z,44.8
2018-12-20T07:38:50.260Z,44.4
2018-12-20T07:40:50.267Z,43.2
2018-12-20T07:42:50.248Z,43.7
2018-12-20T07:44:50.226Z,43.7
2018-12-20T07:46:50.493Z,42.4
2018-12-20T07:48:49.532Z,42.1
2018-12-20T07:50:49.602Z,42.8
2018-12-20T07:52:49.805Z,42.8
2018-12-20T07:54:49.821Z,42.8
2018-12-20T07:56:50.062Z,40.6
2018-12-20T07:58:50.170Z,40.4
2018-12-20T08:00:50.236Z,40.4
2018-12-20T08:02:50.435Z,39.3
2018-12-20T08:04:49.797Z,37.9
2018-12-20T08:06:50.048Z,38.4
2018-12-20T08:08:50.007Z,38.4
2018-12-20T08:10:50.017Z,37.3
2018-12-20T08:12:50.011Z,38.2
2018-12-20T08:14:49.958Z,37.4
2018-12-20T08:16:50.032Z,37.2
2018-12-20T08:18:50.018Z,36.1
2018-12-20T08:20:50.021Z,34.4
2018-12-20T08:22:50.049Z,34.4
2018-12-20T08:24:50.063Z,33.1
2018-12-20T08:26:50.239Z,32.6
2018-12-20T08:28:49.999Z,33.5
2018-12-20T08:30:50.041Z,31.8
2018-12-20T08:32:50.004Z,31.8
2018-12-20T08:34:50.346Z,30.7
2018-12-20T08:36:49.556Z,31.8
2018-12-20T08:38:49.548Z,31.1
2018-12-20T08:40:49.524Z,31.1
2018-12-20T08:42:49.585Z,31.9
2018-12-20T08:44:49.522Z,34.4
2018-12-20T08:46:54.743Z,30.7
2018-12-20T08:48:49.824Z,31.8
2018-12-20T08:50:49.840Z,31.2
2018-12-20T08:52:49.793Z,31.2
2018-12-20T08:54:49.718Z,30.0
2018-12-20T08:56:50.033Z,30.0
2018-12-20T08:58:49.962Z,32.1
2018-12-20T09:00:50.304Z,32.1
2018-12-20T09:02:50.331Z,31.6
2018-12-20T09:04:49.838Z,31.0
2018-12-20T09:06:50.076Z,31.6
2018-12-20T09:08:50.001Z,31.6
2018-12-20T09:10:49.977Z,29.7
2018-12-20T09:12:50.017Z,30.2
2018-12-20T09:14:49.999Z,29.9
2018-12-20T09:16:50.227Z,29.9
2018-12-20T09:18:50.253Z,28.4
2018-12-20T09:20:50.292Z,28.4
2018-12-20T09:22:50.331Z,27.5
2018-12-20T09:24:50.331Z,28.3
2018-12-20T09:26:49.772Z,27.2
2018-12-20T09:28:49.748Z,28.1
2018-12-20T09:30:49.657Z,28.1
2018-12-20T09:32:49.834Z,28.1
2018-12-20T09:34:50.119Z,29.0
2018-12-20T09:36:50.272Z,27.9
2018-12-20T09:38:50.200Z,26.9
2018-12-20T09:40:50.142Z,26.9
2018-12-20T09:42:50.091Z,26.2
2018-12-20T09:44:50.010Z,25.8
2018-12-20T09:46:50.165Z,23.9
2018-12-20T09:48:50.321Z,24.8
2018-12-20T09:50:50.274Z,24.8
2018-12-20T09:52:50.201Z,25.2
2018-12-20T09:54:50.173Z,23.7
2018-12-20T09:56:50.427Z,23.7
2018-12-20T09:58:50.395Z,25.0
2018-12-20T10:00:50.379Z,23.5
2018-12-20T10:02:50.430Z,22.3
2018-12-20T10:04:49.993Z,22.4
2018-12-20T10:06:50.275Z,21.4
2018-12-20T10:08:50.295Z,21.4
2018-12-20T10:10:50.407Z,21.1
2018-12-20T10:12:50.359Z,21.0
2018-12-20T10:14:50.498Z,21.0
2018-12-20T10:16:49.713Z,20.6
2018-12-20T10:18:49.698Z,19.3
2018-12-20T10:20:49.820Z,18.1
2018-12-20T10:22:49.857Z,17.9
2018-12-20T10:24:49.901Z,20.6
2018-12-20T10:26:50.160Z,17.3
2018-12-20T10:28:50.156Z,17.3
2018-12-20T10:30:50.161Z,16.4
2018-12-20T10:32:50.196Z,15.7
2018-12-20T10:34:50.424Z,16.2
2018-12-20T10:36:49.533Z,16.2
2018-12-20T10:38:49.556Z,14.4
2018-12-20T10:40:49.534Z,13.8
2018-12-20T10:42:49.527Z,14.7
2018-12-20T10:44:49.528Z,15.2
2018-12-20T10:46:49.847Z,15.2
2018-12-20T10:48:49.918Z,15.6
2018-12-20T10:50:49.866Z,14.7
2018-12-20T10:52:49.900Z,13.7
2018-12-20T10:54:49.868Z,14.1
2018-12-20T10:56:49.992Z,14.1
2018-12-20T10:58:49.987Z,13.5
2018-12-20T11:00:49.995Z,13.6
2018-12-20T11:02:50.041Z,13.5
2018-12-20T11:04:50.483Z,13.5
2018-12-20T11:06:50.076Z,12.3
2018-12-20T11:08:49.752Z,13.3
2018-12-20T11:10:49.716Z,12.5
2018-12-20T11:12:49.874Z,11.6
2018-12-20T11:14:49.848Z,11.6
2018-12-20T11:16:49.990Z,11.6
2018-12-20T11:18:49.987Z,11.4
2018-12-20T11:20:49.992Z,11.6
2018-12-20T11:22:50.031Z,11.6
2018-12-20T11:24:49.941Z,10.4
2018-12-20T11:26:50.103Z,10.4
2018-12-20T11:28:50.048Z,10.7
2018-12-20T11:30:50.029Z,11.5
2018-12-20T11:32:49.963Z,11.3
2018-12-20T11:34:50.265Z,11.3
2018-12-20T11:36:50.484Z,10.7
2018-12-20T11:38:50.447Z,10.3
2018-12-20T11:40:50.403Z,10.0
2018-12-20T11:42:50.363Z,10.0
2018-12-20T11:44:50.310Z,10.3
2018-12-20T11:46:49.531Z,9.9
2018-12-20T11:48:50.476Z,10.1
2018-12-20T11:50:50.493Z,9.8
2018-12-20T11:52:50.442Z,9.8
2018-12-20T11:54:50.482Z,9.0
2018-12-20T11:56:49.687Z,8.8
2018-12-20T11:58:49.678Z,8.7
2018-12-20T12:00:49.662Z,8.7
2018-12-20T12:02:49.801Z,8.3
2018-12-20T12:04:50.283Z,7.9
2018-12-20T12:06:49.716Z,8.0
2018-12-20T12:08:49.849Z,8.1
2018-12-20T12:10:50.007Z,8.0
2018-12-20T12:12:50.087Z,8.0
2018-12-20T12:14:50.204Z,8.0
2018-12-20T12:16:50.330Z,8.8
2018-12-20T12:18:50.250Z,7.0
2018-12-20T12:20:50.235Z,7.0
2018-12-20T12:22:50.135Z,7.0
2018-12-20T12:24:50.212Z,7.5
2018-12-20T12:26:50.394Z,6.8
2018-12-20T12:28:50.376Z,6.7
2018-12-20T12:30:50.476Z,6.7
2018-12-20T12:32:50.475Z,7.8
2018-12-20T12:34:49.896Z,6.6
2018-12-20T12:36:50.121Z,5.9
2018-12-20T12:38:50.287Z,5.9
2018-12-20T12:40:50.267Z,6.0
2018-12-20T12:42:50.204Z,6.0
2018-12-20T12:44:50.162Z,5.9
2018-12-20T12:46:50.350Z,7.5
2018-12-20T12:48:50.285Z,7.8
2018-12-20T12:50:50.232Z,7.8
2018-12-20T12:52:50.199Z,6.2
2018-12-20T12:54:50.135Z,6.4
2018-12-20T12:56:50.307Z,6.7
2018-12-20T12:58:50.211Z,6.7
2018-12-20T13:00:50.236Z,6.7
2018-12-20T13:02:50.203Z,6.4
2018-12-20T13:04:50.459Z,6.5
2018-12-20T13:06:49.637Z,6.5
2018-12-20T13:08:49.727Z,7.3
2018-12-20T13:10:49.691Z,7.3
2018-12-20T13:12:49.669Z,7.3
2018-12-20T13:14:49.668Z,7.2
2018-12-20T13:16:49.802Z,7.2
2018-12-20T13:18:49.793Z,7.2
2018-12-20T13:20:49.740Z,7.3
2018-12-20T13:22:49.746Z,7.3
2018-12-20T13:24:49.708Z,7.6
2018-12-20T13:26:49.911Z,7.7
2018-12-20T13:28:50.109Z,7.7
2018-12-20T13:30:50.460Z,8.2
2018-12-20T13:32:50.419Z,7.9
2018-12-20T13:34:49.633Z,8.5
2018-12-20T13:36:50.322Z,8.7
2018-12-20T13:38:50.253Z,8.7
2018-12-20T13:40:50.296Z,9.0
2018-12-20T13:42:50.326Z,9.0
2018-12-20T13:44:50.324Z,9.6
2018-12-20T13:46:50.241Z,9.6
2018-12-20T13:48:49.550Z,10.2
2018-12-20T13:50:49.530Z,9.5
2018-12-20T13:52:49.559Z,10.5
2018-12-20T13:54:49.504Z,10.1
2018-12-20T13:56:49.698Z,10.5
2018-12-20T13:58:49.643Z,10.5
2018-12-20T14:00:49.642Z,10.2
2018-12-20T14:02:49.738Z,10.6
2018-12-20T14:04:50.141Z,10.6
2018-12-20T14:06:50.543Z,11.6
2018-12-20T14:08:49.562Z,11.6
2018-12-20T14:10:49.595Z,11.0
2018-12-20T14:12:49.659Z,11.1
2018-12-20T14:14:49.627Z,11.7
2018-12-20T14:16:49.783Z,11.8
2018-12-20T14:18:49.779Z,11.8
2018-12-20T14:20:49.743Z,12.7
2018-12-20T14:22:49.811Z,13.1
2018-12-20T14:24:50.120Z,11.9
2018-12-20T14:26:50.301Z,12.6
2018-12-20T14:28:50.184Z,12.6
2018-12-20T14:30:50.188Z,12.6
2018-12-20T14:32:50.110Z,11.9
2018-12-20T14:34:50.366Z,13.5
2018-12-20T14:36:49.637Z,13.5
2018-12-20T14:38:49.716Z,13.2
2018-12-20T14:40:49.771Z,7.3
2018-12-20T14:42:49.782Z,5.6
2018-12-20T14:44:49.778Z,5.9
2018-12-20T14:46:49.959Z,5.9
2018-12-20T14:48:49.962Z,4.4
2018-12-20T14:50:49.918Z,3.5
2018-12-20T14:52:49.963Z,3.4
2018-12-20T14:54:49.938Z,3.4
2018-12-20T14:56:50.034Z,3.4
2018-12-20T14:58:49.982Z,3.1
2018-12-20T15:00:50.036Z,2.9
2018-12-20T15:02:50.080Z,3.2
2018-12-20T15:04:50.494Z,3.2
2018-12-20T15:06:49.629Z,2.9
2018-12-20T15:08:49.730Z,3.1
2018-12-20T15:10:49.740Z,3.5
2018-12-20T15:12:49.717Z,3.2
2018-12-20T15:14:49.680Z,3.6
2018-12-20T15:16:49.894Z,3.6
2018-12-20T15:18:49.895Z,4.7
2018-12-20T15:20:49.868Z,3.8
2018-12-20T15:22:49.876Z,3.7
2018-12-20T15:24:49.825Z,3.7
2018-12-20T15:26:49.891Z,3.7
2018-12-20T15:28:49.806Z,3.5
2018-12-20T15:30:49.851Z,3.9
2018-12-20T15:32:49.781Z,3.9
2018-12-20T15:34:50.041Z,3.3
2018-12-20T15:36:50.220Z,3.5
2018-12-20T15:38:50.265Z,3.3
2018-12-20T15:40:50.141Z,3.2
2018-12-20T15:42:50.201Z,3.2
2018-12-20T15:44:50.145Z,3.1
2018-12-20T15:46:50.333Z,3.2
2018-12-20T15:48:56.632Z,3.4
2018-12-20T15:50:49.671Z,3.4
2018-12-20T15:52:49.843Z,4.4
2018-12-20T15:54:49.763Z,3.9
2018-12-20T15:56:49.774Z,3.6
2018-12-20T15:58:49.713Z,3.2
2018-12-20T16:00:49.727Z,3.1
2018-12-20T16:02:49.695Z,3.1
2018-12-20T16:04:50.138Z,3.1
2018-12-20T16:06:50.331Z,3.0
2018-12-20T16:08:50.297Z,3.1
2018-12-20T16:10:50.343Z,2.8
2018-12-20T16:12:50.312Z,2.8
2018-12-20T16:14:50.270Z,2.8
2018-12-20T16:16:49.617Z,2.8
2018-12-20T16:18:49.598Z,2.8
2018-12-20T16:20:49.874Z,2.8
2018-12-20T16:22:49.818Z,2.8
2018-12-20T16:24:49.759Z,2.8
2018-12-20T16:26:49.980Z,2.8
2018-12-20T16:28:49.938Z,2.8
2018-12-20T16:30:50.018Z,2.8
2018-12-20T16:32:50.007Z,2.8
2018-12-20T16:34:50.227Z,3.0
2018-12-20T16:36:50.456Z,3.2
2018-12-20T16:38:50.385Z,3.2
2018-12-20T16:40:50.358Z,3.6
2018-12-20T16:42:50.473Z,3.6
2018-12-20T16:44:50.362Z,3.5
2018-12-20T16:46:49.521Z,3.9
2018-12-20T16:48:49.513Z,4.0
2018-12-20T16:50:50.513Z,4.0
2018-12-20T16:52:49.584Z,4.6
2018-12-20T16:54:49.570Z,4.8
2018-12-20T16:56:49.879Z,5.4
2018-12-20T16:58:49.932Z,6.1
2018-12-20T17:00:49.988Z,6.1
2018-12-20T17:02:50.084Z,6.3
2018-12-20T17:04:50.394Z,6.5
2018-12-20T17:06:49.785Z,7.8
2018-12-20T17:08:49.741Z,7.4
2018-12-20T17:10:49.720Z,7.4
2018-12-20T17:12:49.715Z,7.8
2018-12-20T17:14:49.707Z,8.7
2018-12-20T17:16:49.947Z,8.7
2018-12-20T17:18:49.930Z,8.7
2018-12-20T17:20:49.956Z,8.7
2018-12-20T17:22:50.041Z,8.8
2018-12-20T17:24:50.059Z,9.7
2018-12-20T17:26:50.303Z,10.2
2018-12-20T17:28:50.260Z,10.6
2018-12-20T17:30:50.289Z,10.6
2018-12-20T17:32:50.320Z,10.7
2018-12-20T17:34:49.641Z,10.4
2018-12-20T17:36:49.887Z,11.4
2018-12-20T17:38:49.828Z,11.4
2018-12-20T17:40:49.788Z,11.5
2018-12-20T17:42:49.789Z,10.6
2018-12-20T17:44:49.739Z,10.9
2018-12-20T17:46:50.025Z,11.1
2018-12-20T17:48:50.043Z,11.1
2018-12-20T17:50:50.078Z,11.1
2018-12-20T17:52:50.110Z,11.8
2018-12-20T17:54:50.159Z,13.1
2018-12-20T17:56:50.345Z,13.1
2018-12-20T17:58:50.313Z,11.7
2018-12-20T18:00:50.286Z,11.9
2018-12-20T18:02:50.240Z,12.5
2018-12-20T18:04:49.590Z,12.2
2018-12-20T18:06:49.744Z,12.7
2018-12-20T18:08:49.711Z,12.7
2018-12-20T18:10:49.710Z,11.9
2018-12-20T18:12:49.677Z,13.5
2018-12-20T18:14:49.677Z,13.5
2018-12-20T18:16:49.790Z,14.2
2018-12-20T18:18:49.734Z,14.2
2018-12-20T18:20:49.746Z,13.4
2018-12-20T18:22:49.780Z,15.1
2018-12-20T18:24:49.763Z,15.0
2018-12-20T18:26:50.039Z,19.0
2018-12-20T18:28:50.035Z,19.0
2018-12-20T18:30:50.108Z,17.8
2018-12-20T18:32:50.047Z,16.2
2018-12-20T18:34:50.362Z,14.7
2018-12-20T18:36:49.694Z,15.6
2018-12-20T18:38:49.699Z,15.6
2018-12-20T18:40:49.660Z,13.8
2018-12-20T18:42:49.660Z,13.8
2018-12-20T18:44:49.803Z,12.8
2018-12-20T18:46:49.870Z,12.8
2018-12-20T18:48:49.913Z,12.2
2018-12-20T18:50:49.916Z,14.4
2018-12-20T18:52:49.920Z,12.1
2018-12-20T18:54:49.905Z,11.3
2018-12-20T18:56:50.045Z,11.3
2018-12-20T18:58:49.994Z,12.6
2018-12-20T19:00:50.023Z,12.9
2018-12-20T19:02:49.994Z,12.6
2018-12-20T19:04:50.462Z,15.8
2018-12-20T19:06:49.731Z,15.8
2018-12-20T19:08:49.787Z,12.7
2018-12-20T19:10:49.736Z,12.5
2018-12-20T19:12:49.766Z,12.4
2018-12-20T19:14:49.680Z,13.0
2018-12-20T19:16:50.044Z,13.0
2018-12-20T19:18:50.208Z,13.0
2018-12-20T19:20:50.211Z,13.0
2018-12-20T19:22:50.399Z,14.5
2018-12-20T19:24:50.387Z,11.0
2018-12-20T19:26:51.161Z,11.0
2018-12-20T19:28:50.113Z,10.0
2018-12-20T19:30:50.230Z,10.8
2018-12-20T19:32:50.317Z,11.1
2018-12-20T19:34:49.603Z,11.1
2018-12-20T19:36:49.836Z,8.4
2018-12-20T19:38:49.955Z,13.0
2018-12-20T19:40:49.974Z,8.5
2018-12-20T19:42:49.946Z,6.5
2018-12-20T19:44:50.047Z,6.5
2018-12-20T19:46:50.320Z,7.2
2018-12-20T19:48:50.357Z,6.6
2018-12-20T19:50:50.307Z,5.4
2018-12-20T19:52:50.414Z,5.4
2018-12-20T19:54:50.437Z,4.8
2018-12-20T19:56:49.529Z,4.8
2018-12-20T19:58:49.641Z,4.9
2018-12-20T20:00:49.620Z,4.9
2018-12-20T20:02:49.638Z,4.3
2018-12-20T20:04:50.032Z,4.3
2018-12-20T20:06:50.115Z,4.2
2018-12-20T20:08:50.093Z,4.0
2018-12-20T20:10:50.011Z,4.7
2018-12-20T20:12:49.994Z,4.5
2018-12-20T20:14:49.999Z,4.5
2018-12-20T20:16:51.183Z,4.4
2018-12-20T20:18:50.183Z,4.6
2018-12-20T20:20:50.169Z,4.7
2018-12-20T20:22:50.326Z,5.0
2018-12-20T20:24:50.309Z,5.0
2018-12-20T20:26:50.514Z,4.7
2018-12-20T20:28:50.522Z,4.5
2018-12-20T20:30:50.513Z,4.7
2018-12-20T20:32:49.630Z,4.7
2018-12-20T20:34:50.111Z,4.8
2018-12-20T20:36:50.351Z,4.1
2018-12-20T20:38:50.319Z,4.4
2018-12-20T20:40:50.243Z,4.4
2018-12-20T20:42:50.276Z,4.4
2018-12-20T20:44:50.151Z,4.5
2018-12-20T20:46:50.298Z,4.3
2018-12-20T20:48:50.326Z,4.2
2018-12-20T20:50:50.248Z,4.2
2018-12-20T20:52:50.314Z,4.7
2018-12-20T20:54:50.248Z,4.4
2018-12-20T20:56:49.632Z,4.5
2018-12-20T20:58:49.692Z,4.4
2018-12-20T21:00:49.678Z,4.4
2018-12-20T21:02:49.714Z,4.4
2018-12-20T21:04:50.185Z,4.5
2018-12-20T21:06:50.345Z,4.5
2018-12-20T21:08:50.330Z,4.5
2018-12-20T21:10:50.276Z,4.5
2018-12-20T21:12:50.339Z,4.6
2018-12-20T21:14:52.895Z,5.0
2018-12-20T21:16:50.185Z,5.0
2018-12-20T21:18:50.203Z,5.0
2018-12-20T21:20:50.183Z,4.7
2018-12-20T21:22:50.250Z,5.2
2018-12-20T21:24:50.201Z,5.7
2018-12-20T21:26:50.460Z,5.2
2018-12-20T21:28:50.495Z,5.6
2018-12-20T21:30:49.562Z,5.6
2018-12-20T21:32:49.513Z,5.0
2018-12-20T21:34:49.771Z,5.1
2018-12-20T21:36:50.072Z,5.1
2018-12-20T21:38:50.055Z,5.0
2018-12-20T21:40:50.111Z,5.0
2018-12-20T21:42:50.106Z,5.2
2018-12-20T21:44:50.076Z,5.0
2018-12-20T21:46:50.281Z,4.5
2018-12-20T21:48:50.361Z,4.5
2018-12-20T21:50:50.448Z,4.6
2018-12-20T21:52:50.457Z,4.4
2018-12-20T21:54:50.381Z,4.6
2018-12-20T21:56:49.703Z,5.2
2018-12-20T21:58:49.736Z,5.2
2018-12-20T22:00:49.753Z,4.9
2018-12-20T22:02:49.775Z,4.6
2018-12-20T22:04:50.072Z,4.8
2018-12-20T22:06:50.250Z,4.8
2018-12-20T22:08:50.207Z,4.8
2018-12-20T22:10:50.154Z,4.3
2018-12-20T22:12:50.160Z,4.3
2018-12-20T22:14:50.120Z,4.3
2018-12-20T22:16:50.514Z,4.4
2018-12-20T22:18:49.529Z,4.0
2018-12-20T22:20:49.548Z,3.9
2018-12-20T22:22:49.512Z,4.0
2018-12-20T22:24:50.499Z,4.0
2018-12-20T22:26:49.746Z,4.0
2018-12-20T22:28:49.707Z,4.0
2018-12-20T22:30:49.759Z,3.9
2018-12-20T22:32:49.719Z,3.8
2018-12-20T22:34:49.982Z,3.7
2018-12-20T22:36:50.197Z,3.7
2018-12-20T22:38:50.114Z,3.3
2018-12-20T22:40:50.074Z,3.4
2018-12-20T22:42:50.038Z,3.7
2018-12-20T22:44:49.960Z,3.5
2018-12-20T22:46:50.196Z,3.5
2018-12-20T22:48:50.184Z,3.4
2018-12-20T22:50:56.297Z,3.5
2018-12-20T22:52:50.283Z,3.4
2018-12-20T22:54:50.334Z,3.3
2018-12-20T22:56:49.529Z,3.3
2018-12-20T22:58:49.639Z,3.3
2018-12-20T23:00:49.681Z,3.2
2018-12-20T23:02:49.682Z,3.5
2018-12-20T23:04:50.097Z,3.5
2018-12-20T23:06:50.188Z,3.2
2018-12-20T23:08:50.261Z,3.1
2018-12-20T23:10:50.226Z,2.6
2018-12-20T23:12:50.282Z,2.6
2018-12-20T23:14:50.201Z,2.5
2018-12-20T23:16:54.100Z,2.6
2018-12-20T23:18:50.189Z,2.5
2018-12-20T23:20:50.138Z,2.7
2018-12-20T23:22:50.132Z,2.4
2018-12-20T23:24:50.123Z,2.7
2018-12-20T23:26:50.226Z,2.7
2018-12-20T23:28:50.159Z,2.7
2018-12-20T23:30:50.137Z,2.5
2018-12-20T23:32:50.182Z,2.7
2018-12-20T23:34:50.381Z,2.7
2018-12-20T23:36:49.550Z,2.7
2018-12-20T23:38:49.615Z,3.5
2018-12-20T23:40:49.546Z,2.4
2018-12-20T23:42:49.531Z,2.4
2018-12-20T23:44:49.556Z,2.5
2018-12-20T23:46:49.716Z,2.5
2018-12-20T23:48:49.790Z,2.5
2018-12-20T23:50:49.786Z,2.7
2018-12-20T23:52:49.792Z,2.7
2018-12-20T23:54:49.829Z,2.7
2018-12-20T23:56:50.004Z,2.8
2018-12-20T23:58:49.981Z,2.6
